Time;durP1;ratioP1;P1;durP2;ratioP2;P2;SDS_P1;SDS_P2;PMS_P1;PMS_P2;Temp;Humidity;BMP_temperature;BMP_pressure;BME280_temperature;BME280_humidity;BME280_pressure;Samples;Min_cycle;Max_cycle;Signal;HPM_P1;HPM_P2
2022/02/10 05:02:32;;;;;;;18.38;8.82;;;7.60;99.90;;;;;;5208784;23;20295;-68
2022/02/10 05:05:46;;;;;;;19.77;9.55;;;7.60;99.90;;;;;;4949057;29;20201;-68
2022/02/10 05:16:46;;;;;;;27.35;11.85;;;7.70;99.90;;;;;;4934715;29;20200;-68
2022/02/10 05:19:38;;;;;;;34.00;14.07;;;7.70;99.90;;;;;;4945126;29;20210;-68
2022/02/10 05:22:34;;;;;;;34.25;13.68;;;7.80;99.90;;;;;;4921012;29;20303;-68
2022/02/10 05:36:01;;;;;;;40.50;17.63;;;7.80;99.90;;;;;;4929096;29;20253;-68
2022/02/10 05:38:32;;;;;;;39.55;17.45;;;7.80;99.90;;;;;;4950783;28;20740;-68
2022/02/10 05:43:51;;;;;;;38.22;19.08;;;7.90;99.90;;;;;;4936113;29;20239;-68
2022/02/10 05:46:27;;;;;;;55.60;20.38;;;7.90;99.90;;;;;;4926435;29;20230;-68
2022/02/10 05:49:41;;;;;;;44.20;20.42;;;7.90;99.90;;;;;;4922252;29;20211;-68
2022/02/10 05:55:26;;;;;;;45.83;19.38;;;7.90;99.90;;;;;;4894084;29;20220;-68
2022/02/10 05:57:59;;;;;;;48.40;21.33;;;7.90;99.90;;;;;;4929447;29;20244;-68
2022/02/10 06:01:26;;;;;;;49.20;21.60;;;7.90;99.90;;;;;;4915350;29;20207;-68
2022/02/10 06:53:28;;;;;;;55.50;23.40;;;7.90;99.90;;;;;;4934505;29;20295;-67
2022/02/10 07:04:26;;;;;;;53.45;23.77;;;7.90;99.90;;;;;;4929114;29;20210;-67
2022/02/10 07:07:18;;;;;;;46.10;21.10;;;7.90;99.90;;;;;;4936528;29;20237;-67
2022/02/10 07:10:10;;;;;;;54.10;25.48;;;7.90;99.90;;;;;;4929985;29;20689;-67
2022/02/10 07:52:23;;;;;;;5.22;4.68;;;7.70;99.90;;;;;;4933438;28;20710;-66
2022/02/10 07:55:09;;;;;;;6.50;3.63;;;7.50;99.90;;;;;;4945638;29;20479;-67
2022/02/10 07:57:41;;;;;;;3.15;2.95;;;7.40;99.90;;;;;;4945114;29;20663;-66
2022/02/10 08:00:35;;;;;;;3.20;2.78;;;7.30;99.90;;;;;;4925978;29;20293;-67
2022/02/10 09:01:10;;;;;;;3.05;2.85;;;7.00;99.90;;;;;;4951902;28;20235;-66
2022/02/10 09:03:46;;;;;;;3.97;3.58;;;7.00;99.90;;;;;;4934799;29;20210;-67
2022/02/10 09:06:21;;;;;;;4.60;4.30;;;7.10;99.90;;;;;;4935261;29;20715;-67
2022/02/10 09:14:57;;;;;;;11.60;10.35;;;7.20;99.90;;;;;;4909883;29;20313;-67
2022/02/10 09:20:28;;;;;;;4.90;4.40;;;7.30;99.90;;;;;;4953629;29;20292;-66
2022/02/10 09:48:37;;;;;;;6.78;5.35;;;7.20;99.90;;;;;;4946798;29;20281;-67
2022/02/10 09:59:26;;;;;;;6.18;4.85;;;7.40;99.90;;;;;;4924640;29;20286;-69
2022/02/10 10:02:04;;;;;;;11.90;6.78;;;7.40;99.90;;;;;;4927140;29;20249;-68
2022/02/10 10:04:36;;;;;;;23.05;12.75;;;7.50;99.90;;;;;;4934252;29;20216;-68
2022/02/10 10:07:20;;;;;;;10.45;6.80;;;7.60;99.90;;;;;;4933960;29;20352;-69
2022/02/10 10:09:58;;;;;;;7.95;5.25;;;7.70;99.90;;;;;;4914761;29;20218;-68
2022/02/10 10:12:49;;;;;;;6.70;5.18;;;7.80;99.90;;;;;;4914386;29;20234;-68
2022/02/10 10:15:27;;;;;;;6.55;5.85;;;7.80;99.90;;;;;;4922097;29;20209;-68
2022/02/10 10:18:18;;;;;;;4.85;4.43;;;7.90;99.90;;;;;;4933893;29;20209;-69
2022/02/10 10:21:14;;;;;;;4.65;3.90;;;8.00;99.90;;;;;;4914559;29;20237;-68
2022/02/10 10:23:57;;;;;;;5.85;5.20;;;8.00;99.90;;;;;;4914480;29;20214;-68
2022/02/10 10:26:52;;;;;;;4.60;4.28;;;8.00;99.90;;;;;;4914055;29;20241;-69
2022/02/10 10:52:22;;;;;;;12.75;7.78;;;8.40;99.90;;;;;;4945366;28;20223;-69
2022/02/10 10:54:57;;;;;;;5.20;4.80;;;8.50;99.90;;;;;;4942584;29;20201;-69
2022/02/10 10:57:29;;;;;;;3.92;3.72;;;8.60;99.90;;;;;;4951587;29;20215;-67
2022/02/10 11:23:44;;;;;;;7.03;6.43;;;8.40;99.90;;;;;;4925905;29;20252;-68
2022/02/10 11:37:29;;;;;;;4.20;3.90;;;8.50;99.90;;;;;;4934482;29;20587;-67
2022/02/10 11:40:08;;;;;;;4.72;3.80;;;8.50;99.90;;;;;;4933790;29;20210;-68
2022/02/10 11:42:56;;;;;;;4.35;4.03;;;8.50;99.90;;;;;;4955760;28;20260;-67
2022/02/10 13:48:30;;;;;;;4.25;3.25;;;8.40;99.90;;;;;;5093330;28;20223;-68
2022/02/10 14:13:10;;;;;;;3.72;3.47;;;8.40;99.90;;;;;;5095059;28;20242;-67
2022/02/10 14:15:54;;;;;;;2.90;2.25;;;8.40;99.90;;;;;;5113193;28;20652;-66
2022/02/10 14:18:25;;;;;;;5.95;2.78;;;8.40;99.90;;;;;;5112259;28;20600;-67
2022/02/10 14:21:10;;;;;;;6.72;2.95;;;8.40;99.90;;;;;;5101780;28;20790;-67
2022/02/10 14:26:32;;;;;;;2.40;2.20;;;8.30;99.90;;;;;;5104384;28;20298;-66
2022/02/10 14:28:59;;;;;;;6.22;3.40;;;8.30;99.90;;;;;;5092436;28;20299;-68
2022/02/10 14:31:27;;;;;;;2.92;2.00;;;8.30;99.90;;;;;;5094108;28;20217;-66
2022/02/10 14:33:54;;;;;;;2.85;2.00;;;8.30;99.90;;;;;;5093519;28;20651;-67
2022/02/10 14:36:28;;;;;;;1.83;1.77;;;8.20;99.90;;;;;;5099042;28;20192;-67
2022/02/10 14:38:58;;;;;;;3.85;2.85;;;8.20;99.90;;;;;;5092612;28;20549;-66
2022/02/10 14:41:57;;;;;;;9.57;4.03;;;8.20;99.90;;;;;;5099396;27;20247;-66
2022/02/10 15:53:28;;;;;;;3.03;2.35;;;7.50;99.90;;;;;;5101683;28;20280;-66
2022/02/10 16:16:07;;;;;;;3.47;3.35;;;7.20;99.90;;;;;;5091243;28;20200;-67
2022/02/10 16:18:18;;;;;;;4.90;3.45;;;7.20;99.90;;;;;;5097711;28;20205;-67
2022/02/10 16:20:49;;;;;;;3.58;3.13;;;7.20;99.90;;;;;;5101934;28;20254;-67
2022/02/10 16:23:18;;;;;;;3.00;2.80;;;7.10;99.90;;;;;;5107111;28;20582;-67
2022/02/10 16:25:50;;;;;;;3.10;2.90;;;7.10;99.90;;;;;;5110969;28;20214;-67
2022/02/10 16:28:26;;;;;;;4.05;2.90;;;7.10;99.90;;;;;;5098140;28;20196;-66
2022/02/10 16:30:53;;;;;;;5.30;3.30;;;7.10;99.90;;;;;;5104310;28;20219;-67
2022/02/10 16:33:20;;;;;;;5.40;4.95;;;7.00;99.90;;;;;;5102165;28;20219;-67
2022/02/10 16:35:47;;;;;;;4.95;3.40;;;7.00;99.90;;;;;;5091880;28;20200;-66
2022/02/10 16:38:13;;;;;;;6.10;3.97;;;7.00;99.90;;;;;;5096283;28;20200;-66
2022/02/10 16:40:41;;;;;;;7.55;4.88;;;7.00;99.90;;;;;;5090479;28;20618;-67
2022/02/10 16:43:10;;;;;;;6.82;4.22;;;7.00;99.90;;;;;;5097687;28;20282;-67
2022/02/10 16:45:36;;;;;;;4.97;3.35;;;7.00;99.90;;;;;;5090229;28;20250;-67
2022/02/10 16:48:04;;;;;;;3.60;3.40;;;7.00;99.90;;;;;;5108773;28;20511;-66
2022/02/10 16:50:31;;;;;;;3.88;3.67;;;7.00;99.90;;;;;;5100113;28;20211;-67
2022/02/10 16:53:01;;;;;;;4.15;3.65;;;7.00;99.90;;;;;;5095673;28;20716;-67
2022/02/10 16:55:44;;;;;;;5.30;4.35;;;7.00;99.90;;;;;;5104681;28;20266;-67
2022/02/10 16:58:22;;;;;;;11.10;5.10;;;7.00;99.90;;;;;;5092678;28;20200;-68
2022/02/10 17:15:05;;;;;;;5.70;3.83;;;6.90;99.90;;;;;;5109089;28;20534;-67
2022/02/10 17:17:56;;;;;;;10.40;5.80;;;6.90;99.90;;;;;;5109724;28;20698;-67
2022/02/10 17:20:39;;;;;;;4.93;4.13;;;6.80;99.90;;;;;;5091475;28;20653;-68
2022/02/10 17:26:02;;;;;;;5.70;5.15;;;6.70;99.90;;;;;;5106357;28;20249;-67
2022/02/10 17:28:29;;;;;;;4.75;4.30;;;6.70;99.90;;;;;;5094900;28;20599;-67
2022/02/10 17:31:10;;;;;;;3.80;3.00;;;6.70;99.90;;;;;;5093607;28;20220;-67
2022/02/10 17:33:51;;;;;;;3.88;3.58;;;6.70;99.90;;;;;;5092841;28;20216;-67
2022/02/10 17:36:28;;;;;;;2.90;2.70;;;6.70;99.90;;;;;;5096407;28;20215;-68
2022/02/10 17:52:56;;;;;;;2.40;2.30;;;6.60;99.90;;;;;;5110573;28;20207;-67
2022/02/10 17:55:23;;;;;;;3.70;2.90;;;6.60;99.90;;;;;;5112704;28;20668;-66
2022/02/10 17:57:50;;;;;;;3.85;2.28;;;6.60;99.90;;;;;;5099629;28;20303;-67
2022/02/10 18:00:20;;;;;;;2.40;2.30;;;6.60;99.90;;;;;;5103828;28;20204;-67
2022/02/10 18:02:48;;;;;;;2.95;2.40;;;6.60;99.90;;;;;;5102120;28;20641;-67
2022/02/10 18:05:39;;;;;;;2.60;2.40;;;6.60;99.90;;;;;;5095737;28;20210;-67
2022/02/10 18:08:09;;;;;;;5.20;2.70;;;6.60;99.90;;;;;;5111012;28;20749;-66
2022/02/10 18:13:31;;;;;;;4.00;2.35;;;6.60;99.90;;;;;;5092477;27;20823;-66
2022/02/10 18:16:01;;;;;;;3.30;1.92;;;6.60;99.90;;;;;;5090522;28;20557;-66
2022/02/10 18:18:37;;;;;;;2.47;2.05;;;6.60;99.90;;;;;;5090224;28;20296;-67
2022/02/10 18:21:12;;;;;;;4.07;2.97;;;6.50;99.90;;;;;;5100342;28;20229;-66
2022/02/10 18:24:01;;;;;;;4.25;2.40;;;6.50;99.90;;;;;;5096534;28;20208;-66
2022/02/10 18:26:45;;;;;;;4.00;3.30;;;6.50;99.90;;;;;;5090217;28;20215;-66
2022/02/10 18:29:20;;;;;;;4.15;2.70;;;6.50;99.90;;;;;;5089342;28;20204;-66
2022/02/10 19:07:53;;;;;;;10.27;6.88;;;6.10;99.90;;;;;;5095507;28;20206;-67
2022/02/10 19:10:24;;;;;;;9.43;5.22;;;6.00;99.90;;;;;;5094760;28;20667;-67
2022/02/10 19:12:55;;;;;;;12.80;4.90;;;6.00;99.90;;;;;;5093778;28;20232;-68
2022/02/10 19:15:24;;;;;;;10.90;6.68;;;6.00;99.90;;;;;;5106279;28;20216;-68
2022/02/10 19:17:51;;;;;;;10.35;5.15;;;6.00;99.90;;;;;;5108866;27;20249;-67
2022/02/10 19:20:20;;;;;;;9.13;7.03;;;6.00;99.90;;;;;;5104351;28;20274;-67
2022/02/10 19:22:48;;;;;;;6.80;5.38;;;5.90;99.90;;;;;;5097934;27;20656;-67
2022/02/10 19:25:15;;;;;;;6.80;5.20;;;5.90;99.90;;;;;;5095188;28;20207;-68
2022/02/10 19:27:43;;;;;;;4.63;4.18;;;5.90;99.90;;;;;;5107640;28;20245;-68
2022/02/10 19:30:12;;;;;;;5.47;4.13;;;5.80;99.90;;;;;;5093005;28;20303;-67
2022/02/10 19:32:43;;;;;;;6.03;4.28;;;5.80;99.90;;;;;;5100474;28;20322;-67
2022/02/10 19:35:12;;;;;;;7.00;4.65;;;5.80;99.90;;;;;;5108345;28;20228;-67
2022/02/10 19:37:38;;;;;;;4.35;3.80;;;5.70;99.90;;;;;;5103749;28;20227;-67
2022/02/10 19:40:10;;;;;;;4.72;4.18;;;5.70;99.90;;;;;;5107525;28;20200;-67
2022/02/10 19:42:39;;;;;;;6.18;5.50;;;5.70;99.90;;;;;;5095815;28;20394;-67
2022/02/10 19:45:08;;;;;;;5.82;4.53;;;5.70;99.90;;;;;;5097662;28;20303;-67
2022/02/10 19:47:37;;;;;;;8.80;5.32;;;5.60;99.90;;;;;;5096245;28;20258;-67
2022/02/10 19:50:10;;;;;;;5.93;5.43;;;5.60;99.90;;;;;;5092418;28;20204;-68
2022/02/10 19:52:39;;;;;;;8.98;5.53;;;5.60;99.90;;;;;;5091409;28;20596;-67
2022/02/10 19:55:12;;;;;;;8.60;5.85;;;5.60;99.90;;;;;;5107713;28;20223;-68
2022/02/10 19:57:40;;;;;;;11.07;5.75;;;5.50;99.90;;;;;;5096146;28;20327;-68
2022/02/10 20:00:12;;;;;;;7.53;6.47;;;5.50;99.90;;;;;;5101107;28;20208;-67
2022/02/10 20:02:39;;;;;;;13.30;9.90;;;5.40;99.90;;;;;;5105166;28;20668;-67
2022/02/10 20:05:06;;;;;;;8.93;4.85;;;5.40;99.90;;;;;;5111298;28;20207;-68
2022/02/10 20:07:37;;;;;;;11.68;8.70;;;5.40;99.90;;;;;;5108177;27;20196;-68
2022/02/10 20:10:04;;;;;;;9.88;5.97;;;5.40;99.90;;;;;;5090892;28;20276;-67
2022/02/10 20:12:33;;;;;;;8.00;5.15;;;5.30;99.90;;;;;;5100977;28;20666;-67
2022/02/10 20:15:00;;;;;;;6.28;5.78;;;5.30;99.90;;;;;;5106351;28;20231;-68
2022/02/10 20:17:26;;;;;;;13.48;4.68;;;5.30;99.90;;;;;;5101508;28;20208;-67
2022/02/10 20:19:53;;;;;;;4.38;4.03;;;5.20;99.90;;;;;;5111119;28;20204;-67
2022/02/10 20:22:20;;;;;;;3.80;2.90;;;5.20;99.90;;;;;;5109256;28;20223;-67
2022/02/10 20:24:47;;;;;;;3.70;3.40;;;5.20;99.90;;;;;;5111319;28;20203;-67
2022/02/10 20:27:13;;;;;;;4.72;3.83;;;5.20;99.90;;;;;;5103260;28;20234;-67
2022/02/10 20:29:41;;;;;;;2.83;2.72;;;5.20;99.90;;;;;;5108330;28;20200;-67
2022/02/10 20:32:08;;;;;;;5.80;3.42;;;5.10;99.90;;;;;;5104187;28;20220;-67
2022/02/10 20:34:35;;;;;;;5.32;4.07;;;5.10;99.90;;;;;;5090623;28;20795;-66
2022/02/10 20:37:03;;;;;;;5.28;3.90;;;5.10;99.90;;;;;;5095379;28;20248;-66
2022/02/10 20:39:30;;;;;;;3.33;3.05;;;5.10;99.90;;;;;;5110416;28;20234;-67
2022/02/10 20:42:03;;;;;;;3.85;3.47;;;5.10;99.90;;;;;;5103067;28;20247;-66
2022/02/10 20:44:30;;;;;;;4.47;3.05;;;5.10;99.90;;;;;;5098435;28;20192;-66
2022/02/10 20:46:59;;;;;;;4.28;4.07;;;5.00;99.90;;;;;;5102076;28;20675;-66
2022/02/10 20:49:27;;;;;;;2.60;2.20;;;5.00;99.90;;;;;;5099881;28;20224;-67
2022/02/10 20:51:56;;;;;;;8.27;3.63;;;5.00;99.90;;;;;;5099933;28;20311;-66
2022/02/10 20:54:23;;;;;;;6.93;5.25;;;5.00;99.90;;;;;;5101059;28;20200;-66
2022/02/10 20:56:50;;;;;;;2.97;2.83;;;5.00;99.90;;;;;;5102720;28;20203;-66
2022/02/10 20:59:24;;;;;;;8.55;3.47;;;4.90;99.90;;;;;;5105808;28;20637;-67
2022/02/10 21:01:58;;;;;;;3.92;3.60;;;4.90;99.90;;;;;;5106326;28;20255;-67
2022/02/10 21:04:29;;;;;;;4.43;3.20;;;4.90;99.90;;;;;;5105676;28;20204;-67
2022/02/10 21:07:00;;;;;;;5.50;4.18;;;4.90;99.90;;;;;;5105502;28;20211;-67
2022/02/10 21:09:36;;;;;;;3.20;3.00;;;4.90;99.90;;;;;;5112834;28;20200;-67
2022/02/10 21:12:05;;;;;;;4.90;3.45;;;4.90;99.90;;;;;;5094495;28;20227;-67
2022/02/10 21:14:32;;;;;;;5.93;4.00;;;4.90;99.90;;;;;;5101959;27;20632;-67
2022/02/10 21:17:05;;;;;;;5.70;3.70;;;4.80;99.90;;;;;;5114460;28;20203;-67
2022/02/10 21:19:34;;;;;;;5.93;4.78;;;4.80;99.90;;;;;;5104560;28;20195;-68
2022/02/10 21:22:05;;;;;;;7.60;6.15;;;4.80;99.90;;;;;;5114335;28;20223;-68
2022/02/10 21:24:33;;;;;;;7.03;6.57;;;4.80;99.90;;;;;;5105936;28;20205;-67
2022/02/10 21:27:24;;;;;;;5.65;5.13;;;4.80;99.90;;;;;;5093731;28;20562;-67
2022/02/10 21:29:55;;;;;;;3.08;2.83;;;4.70;99.90;;;;;;5094689;28;20200;-67
2022/02/10 21:32:22;;;;;;;3.63;3.25;;;4.70;99.90;;;;;;5097513;28;20239;-68
2022/02/10 21:35:06;;;;;;;2.88;2.67;;;4.70;99.90;;;;;;5104715;28;20228;-68
2022/02/10 21:37:42;;;;;;;7.68;2.85;;;4.70;99.90;;;;;;5100383;28;20684;-67
2022/02/10 21:40:24;;;;;;;4.70;3.13;;;4.70;99.90;;;;;;5102340;28;20200;-68
2022/02/10 21:48:36;;;;;;;4.70;3.58;;;4.60;99.90;;;;;;5070125;28;20664;-66
2022/02/10 21:57:04;;;;;;;4.47;3.10;;;4.60;99.90;;;;;;5104660;28;20227;-66
2022/02/10 21:59:49;;;;;;;4.78;3.05;;;4.60;99.90;;;;;;5108475;28;20625;-68
